createdAt,value
2022-10-05T00:04:28.459Z,15.15
2022-10-05T00:09:35.015Z,15.64
2022-10-05T00:14:35.995Z,15.71
2022-10-05T00:19:35.217Z,15.55
2022-10-05T00:24:40.253Z,14.81
2022-10-05T00:29:38.632Z,15.11
2022-10-05T00:34:37.741Z,14.77
2022-10-05T00:39:36.972Z,14.81
2022-10-05T00:44:43.246Z,15.22
2022-10-05T00:50:18.873Z,15.41
2022-10-05T00:55:24.270Z,14.66
2022-10-05T01:00:24.583Z,15.34
2022-10-05T01:05:34.231Z,14.75
2022-10-05T01:10:41.473Z,15.25
2022-10-05T01:15:51.524Z,14.73
2022-10-05T01:21:12.027Z,15.27
2022-10-05T01:26:35.639Z,15.02
2022-10-05T01:31:40.222Z,14.55
2022-10-05T01:36:45.741Z,15.09
2022-10-05T01:41:50.158Z,15.03
2022-10-05T01:46:58.367Z,15.08
2022-10-05T01:52:09.327Z,14.73
2022-10-05T01:57:17.151Z,14.93
2022-10-05T02:02:23.666Z,15.01
2022-10-05T02:07:30.942Z,14.72
2022-10-05T02:12:33.009Z,14.69
2022-10-05T02:17:41.925Z,14.75
2022-10-05T02:22:43.831Z,14.36
2022-10-05T02:27:49.217Z,14.77
2022-10-05T02:32:54.143Z,14.66
2022-10-05T02:38:08.015Z,14.43
2022-10-05T02:43:19.599Z,14.60
2022-10-05T02:48:31.247Z,14.39
2022-10-05T02:53:37.799Z,14.26
2022-10-05T02:58:45.982Z,14.73
2022-10-05T03:03:53.286Z,14.66
2022-10-05T03:08:59.837Z,14.68
2022-10-05T03:14:05.853Z,14.66
2022-10-05T03:19:17.150Z,14.58
2022-10-05T03:24:34.842Z,14.55
2022-10-05T03:29:40.385Z,14.35
2022-10-05T03:34:48.728Z,14.29
2022-10-05T03:39:51.903Z,14.47
2022-10-05T03:45:00.148Z,13.70
2022-10-05T03:50:23.452Z,14.22
2022-10-05T03:55:33.217Z,13.57
2022-10-05T04:00:34.802Z,14.11
2022-10-05T04:05:41.167Z,14.14
2022-10-05T04:10:44.070Z,14.00
2022-10-05T04:15:46.342Z,13.75
2022-10-05T04:20:46.954Z,13.78
2022-10-05T04:25:50.454Z,13.39
2022-10-05T04:30:52.199Z,14.09
2022-10-05T04:36:32.795Z,13.78
2022-10-05T04:41:56.252Z,14.08
2022-10-05T04:47:24.459Z,13.39
2022-10-05T04:52:39.553Z,13.20
2022-10-05T04:57:58.678Z,14.13
2022-10-05T05:03:27.285Z,14.02
2022-10-05T05:14:28.824Z,13.73
2022-10-05T05:19:40.359Z,14.16
2022-10-05T05:24:56.970Z,14.26
2022-10-05T05:30:04.074Z,13.98
2022-10-05T05:35:33.706Z,14.37
2022-10-05T05:40:36.281Z,14.29
2022-10-05T05:45:44.802Z,14.61
2022-10-05T05:50:55.931Z,14.47
2022-10-05T05:56:01.187Z,14.54
2022-10-05T06:01:20.257Z,15.00
2022-10-05T06:06:30.504Z,14.49
2022-10-05T06:11:32.997Z,14.77
2022-10-05T06:16:37.098Z,15.24
2022-10-05T06:21:44.992Z,15.03
2022-10-05T06:27:19.112Z,14.70
2022-10-05T06:32:26.247Z,15.31
2022-10-05T06:37:38.607Z,14.89
2022-10-05T06:43:03.676Z,15.94
2022-10-05T06:48:11.921Z,18.07
2022-10-05T06:53:59.876Z,20.42
2022-10-05T06:59:09.927Z,23.22
2022-10-05T07:04:21.708Z,24.95
2022-10-05T07:09:31.612Z,26.59
2022-10-05T07:15:01.972Z,28.63
2022-10-05T07:20:08.571Z,29.66
2022-10-05T07:25:14.996Z,30.61
2022-10-05T07:30:15.603Z,31.20
2022-10-05T07:35:38.933Z,32.11
2022-10-05T07:40:47.243Z,32.67
2022-10-05T07:45:51.890Z,33.56
2022-10-05T07:51:02.260Z,34.28
2022-10-05T07:56:07.411Z,34.96
2022-10-05T08:01:23.147Z,35.03
2022-10-05T08:06:51.144Z,35.55
2022-10-05T08:12:08.850Z,35.65
2022-10-05T08:17:31.482Z,35.63
2022-10-05T08:22:46.188Z,35.97
2022-10-05T08:27:54.597Z,36.23
2022-10-05T08:33:07.323Z,35.55
2022-10-05T08:38:13.256Z,35.62
2022-10-05T08:44:12.269Z,35.08
2022-10-05T08:49:50.468Z,35.23
2022-10-05T08:55:07.519Z,35.20
2022-10-05T09:00:11.546Z,35.10
2022-10-05T09:05:44.225Z,34.68
2022-10-05T09:11:01.932Z,34.18
2022-10-05T09:16:35.593Z,33.90
2022-10-05T09:22:03.889Z,33.83
2022-10-05T09:27:10.194Z,33.06
2022-10-05T09:32:43.922Z,32.94
2022-10-05T09:38:41.627Z,32.77
2022-10-05T09:44:28.717Z,32.31
2022-10-05T09:50:07.867Z,31.73
2022-10-05T09:55:30.535Z,31.15
2022-10-05T10:00:35.767Z,31.04
2022-10-05T10:06:35.332Z,31.54
2022-10-05T10:11:53.472Z,31.13
2022-10-05T10:17:30.230Z,29.71
2022-10-05T10:23:24.845Z,29.15
2022-10-05T10:29:03.483Z,28.68
2022-10-05T10:34:38.078Z,28.10
2022-10-05T10:40:11.722Z,27.48
2022-10-05T10:45:26.251Z,27.40
2022-10-05T10:51:05.664Z,27.22
2022-10-05T10:56:39.845Z,26.67
2022-10-05T11:02:01.666Z,25.98
2022-10-05T11:07:36.853Z,25.54
2022-10-05T11:13:28.263Z,25.19
2022-10-05T11:18:41.298Z,24.11
2022-10-05T11:24:38.164Z,24.13
2022-10-05T11:30:02.810Z,23.55
2022-10-05T11:35:37.006Z,23.61
2022-10-05T11:41:25.613Z,22.97
2022-10-05T11:46:52.390Z,22.08
2022-10-05T11:52:03.946Z,22.10
2022-10-05T12:02:47.644Z,23.06
2022-10-05T12:08:40.575Z,22.65
2022-10-05T12:13:47.329Z,22.08
2022-10-05T12:19:42.146Z,20.88
2022-10-05T12:25:01.784Z,20.95
2022-10-05T12:30:12.380Z,21.34
2022-10-05T12:35:43.899Z,21.29
2022-10-05T12:40:51.053Z,21.76
2022-10-05T12:46:17.989Z,22.19
2022-10-05T12:51:26.523Z,22.63
2022-10-05T12:56:54.788Z,22.37
2022-10-05T13:02:01.922Z,22.15
2022-10-05T13:07:32.099Z,21.52
2022-10-05T13:12:44.284Z,21.30
2022-10-05T13:17:51.285Z,22.00
2022-10-05T13:22:59.881Z,21.74
2022-10-05T13:28:21.779Z,22.04
2022-10-05T13:34:16.898Z,21.78
2022-10-05T13:45:43.133Z,21.71
2022-10-05T13:50:48.356Z,21.86
2022-10-05T14:01:43.051Z,21.86
2022-10-05T14:06:44.651Z,21.50
2022-10-05T14:11:53.195Z,21.48
2022-10-05T14:17:00.996Z,21.25
2022-10-05T14:22:31.544Z,21.09
2022-10-05T14:27:36.164Z,21.32
2022-10-05T14:32:56.173Z,21.05
2022-10-05T14:37:59.789Z,20.80
2022-10-05T14:43:08.860Z,20.53
2022-10-05T14:48:11.050Z,20.37
2022-10-05T14:54:19.253Z,20.42
2022-10-05T14:59:35.076Z,20.13
2022-10-05T15:04:49.406Z,19.34
2022-10-05T15:10:01.531Z,19.43
2022-10-05T15:15:26.670Z,19.13
2022-10-05T15:20:36.678Z,18.85
2022-10-05T15:26:08.749Z,18.66
2022-10-05T15:32:00.921Z,19.30
2022-10-05T15:38:10.225Z,18.59
2022-10-05T15:43:24.110Z,18.44
2022-10-05T15:48:29.323Z,18.46
2022-10-05T15:53:47.192Z,18.52
2022-10-05T15:59:17.620Z,18.43
2022-10-05T16:04:26.165Z,18.39
2022-10-05T16:10:10.575Z,18.29
2022-10-05T16:21:36.321Z,19.10
2022-10-05T16:39:04.922Z,18.30
2022-10-05T16:44:33.343Z,17.81
2022-10-05T16:49:52.073Z,18.53
2022-10-05T16:55:06.441Z,17.83
2022-10-05T17:01:04.378Z,17.48
2022-10-05T17:06:35.146Z,17.28
2022-10-05T17:11:59.767Z,17.94
2022-10-05T17:17:51.909Z,17.42
2022-10-05T17:29:15.544Z,17.18
2022-10-05T17:34:33.860Z,17.21
2022-10-05T17:39:51.304Z,17.14
2022-10-05T17:45:07.667Z,17.22
2022-10-05T17:51:05.638Z,16.93
2022-10-05T17:57:16.333Z,17.26
2022-10-05T18:02:49.642Z,16.84
2022-10-05T18:08:41.420Z,16.67
2022-10-05T18:13:49.180Z,16.69
2022-10-05T18:19:00.563Z,16.41
2022-10-05T18:24:23.536Z,16.31
2022-10-05T18:30:11.097Z,16.88
2022-10-05T18:36:56.647Z,16.34
2022-10-05T18:42:24.138Z,16.56
2022-10-05T18:47:34.667Z,16.40
2022-10-05T18:53:28.419Z,15.97
2022-10-05T18:58:52.124Z,16.42
2022-10-05T19:04:14.387Z,15.97
2022-10-05T19:09:26.385Z,16.16
2022-10-05T19:14:34.901Z,15.55
2022-10-05T19:19:57.605Z,16.36
2022-10-05T19:31:18.221Z,15.81
2022-10-05T19:36:41.976Z,15.73
2022-10-05T19:42:09.025Z,15.51
2022-10-05T19:47:21.927Z,15.99
2022-10-05T19:52:30.917Z,15.77
2022-10-05T20:03:50.549Z,15.70
2022-10-05T20:08:57.644Z,15.76
2022-10-05T20:14:19.354Z,15.99
2022-10-05T20:20:04.676Z,15.20
2022-10-05T20:25:13.334Z,15.29
2022-10-05T20:30:14.725Z,15.82
2022-10-05T20:35:29.540Z,15.79
2022-10-05T20:40:29.647Z,15.60
2022-10-05T20:46:22.658Z,15.54
2022-10-05T20:51:24.529Z,15.75
2022-10-05T20:56:28.491Z,15.58
2022-10-05T21:01:31.259Z,15.58
2022-10-05T21:06:30.402Z,15.43
2022-10-05T21:11:30.372Z,15.31
2022-10-05T21:16:30.698Z,15.66
2022-10-05T21:21:30.424Z,15.24
2022-10-05T21:26:28.558Z,15.60
2022-10-05T21:31:29.121Z,15.42
2022-10-05T21:36:31.863Z,15.39
2022-10-05T21:41:36.614Z,15.45
2022-10-05T21:47:15.163Z,15.34
2022-10-05T21:52:20.688Z,15.26
2022-10-05T21:57:22.555Z,15.05
2022-10-05T22:02:19.617Z,15.29
2022-10-05T22:07:19.396Z,14.98
2022-10-05T22:12:19.290Z,14.98
2022-10-05T22:17:24.333Z,14.97
2022-10-05T22:22:22.142Z,14.88
2022-10-05T22:27:43.469Z,14.92
2022-10-05T22:32:44.394Z,14.66
2022-10-05T22:38:18.939Z,14.91
2022-10-05T22:43:18.555Z,14.76
2022-10-05T22:48:16.577Z,14.30
2022-10-05T22:53:14.788Z,14.36
2022-10-05T22:58:12.524Z,14.15
2022-10-05T23:03:10.557Z,14.71
2022-10-05T23:08:09.288Z,14.59
2022-10-05T23:13:07.033Z,14.27
2022-10-05T23:18:04.477Z,14.36
2022-10-05T23:23:05.612Z,13.90
2022-10-05T23:28:04.727Z,14.07
2022-10-05T23:33:16.496Z,14.51
2022-10-05T23:38:37.030Z,14.08
2022-10-05T23:43:37.708Z,14.15
2022-10-05T23:48:37.514Z,14.49
2022-10-05T23:53:35.595Z,14.01
2022-10-05T23:58:53.254Z,14.04
